Time,TemperatureF,DewpointF,PressureIn,WindDirection,WindDirectionDegrees,WindSpeedMPH,WindSpeedGustMPH,Humidity,HourlyPrecipIn,Conditions,Clouds,dailyrainin,SolarRadiationWatts/m^2,SoftwareType,DateUTC
2013-03-23 00:00:00,33.4,24.8,29.85,South,169,0.0,1.0,70,0.00,,,0.00,0.0,meteohub,2013-03-23 04:00:00,
2013-03-23 00:02:00,33.4,24.8,29.85,ENE,75,1.0,1.0,70,0.00,,,0.00,0.0,meteohub,2013-03-23 04:02:00,
2013-03-23 00:03:00,33.4,25.0,29.85,ENE,75,0.0,1.0,71,0.00,,,0.00,0.0,meteohub,2013-03-23 04:03:00,
2013-03-23 00:08:00,33.3,25.2,29.85,South,172,1.0,1.0,72,0.00,,,0.00,0.0,meteohub,2013-03-23 04:08:00,
2013-03-23 00:13:00,33.4,25.0,29.85,East,90,2.0,2.0,71,0.00,,,0.00,0.0,meteohub,2013-03-23 04:13:00,
2013-03-23 00:18:00,33.4,25.3,29.85,ESE,104,0.0,3.0,72,0.00,,,0.00,0.0,meteohub,2013-03-23 04:18:00,
2013-03-23 00:23:00,33.4,25.0,29.85,ESE,103,1.0,6.0,71,0.00,,,0.00,0.0,meteohub,2013-03-23 04:23:00,
2013-03-23 00:28:00,33.4,25.0,29.85,NE,41,0.0,6.0,71,0.00,,,0.00,0.0,meteohub,2013-03-23 04:28:00,
2013-03-23 00:33:00,33.4,25.0,29.85,NE,47,0.0,6.0,71,0.00,,,0.00,0.0,meteohub,2013-03-23 04:33:00,
2013-03-23 00:38:00,33.4,25.7,29.85,ESE,108,0.0,5.0,73,0.00,,,0.00,0.0,meteohub,2013-03-23 04:38:00,
2013-03-23 00:44:00,33.4,25.3,29.85,NE,37,0.0,5.0,72,0.00,,,0.00,0.0,meteohub,2013-03-23 04:44:00,
2013-03-23 00:49:00,33.4,25.3,29.85,ESE,114,1.0,4.0,72,0.00,,,0.00,0.0,meteohub,2013-03-23 04:49:00,
2013-03-23 00:54:00,33.3,25.2,29.85,SW,222,0.0,4.0,72,0.00,,,0.00,0.0,meteohub,2013-03-23 04:54:00,
2013-03-23 00:59:00,33.3,25.9,29.85,SW,222,0.0,3.0,74,0.00,,,0.00,0.0,meteohub,2013-03-23 04:59:00,
2013-03-23 01:04:00,33.1,25.7,29.85,SW,217,0.0,3.0,74,0.00,,,0.00,0.0,meteohub,2013-03-23 05:04:00,
2013-03-23 01:09:00,33.1,26.1,29.84,SW,217,0.0,2.0,75,0.00,,,0.00,0.0,meteohub,2013-03-23 05:09:00,
2013-03-23 01:14:00,32.9,25.5,29.84,SW,215,0.0,2.0,74,0.00,,,0.00,0.0,meteohub,2013-03-23 05:14:00,
2013-03-23 01:19:00,32.7,25.3,29.84,ESE,117,0.0,2.0,74,0.00,,,0.00,0.0,meteohub,2013-03-23 05:19:00,
2013-03-23 01:24:00,32.7,25.7,29.84,ESE,120,0.0,3.0,75,0.00,,,0.00,0.0,meteohub,2013-03-23 05:24:00,
2013-03-23 01:30:00,32.7,25.3,29.84,SSW,213,2.0,3.0,74,0.00,,,0.00,0.0,meteohub,2013-03-23 05:30:00,
2013-03-23 01:35:00,32.9,24.8,29.84,SW,215,2.0,3.0,72,0.00,,,0.00,0.0,meteohub,2013-03-23 05:35:00,
2013-03-23 01:40:00,33.1,24.6,29.84,SW,215,0.0,3.0,71,0.00,,,0.00,0.0,meteohub,2013-03-23 05:40:00,
2013-03-23 01:45:00,33.3,25.2,29.84,SW,215,1.0,3.0,72,0.00,,,0.00,0.0,meteohub,2013-03-23 05:45:00,
2013-03-23 01:51:00,33.3,24.6,29.84,East,96,0.0,2.0,70,0.00,,,0.00,0.0,meteohub,2013-03-23 05:51:00,
2013-03-23 01:57:00,33.4,25.0,29.84,East,96,0.0,2.0,71,0.00,,,0.00,0.0,meteohub,2013-03-23 05:57:00,
2013-03-23 02:02:00,33.4,25.0,29.84,South,191,4.0,4.0,71,0.00,,,0.00,0.0,meteohub,2013-03-23 06:02:00,
2013-03-23 02:07:00,33.4,24.4,29.84,WNW,286,1.0,4.0,69,0.00,,,0.00,0.0,meteohub,2013-03-23 06:07:00,
2013-03-23 02:12:00,33.6,24.3,29.84,WNW,286,0.0,4.0,68,0.00,,,0.00,0.0,meteohub,2013-03-23 06:12:00,
2013-03-23 02:17:00,33.6,24.6,29.84,East,96,2.0,4.0,69,0.00,,,0.00,0.0,meteohub,2013-03-23 06:17:00,
2013-03-23 02:22:00,33.6,24.3,29.84,ESE,123,0.0,3.0,68,0.00,,,0.00,0.0,meteohub,2013-03-23 06:22:00,
2013-03-23 02:26:00,33.8,24.1,29.84,East,85,0.0,3.0,67,0.00,,,0.00,0.0,meteohub,2013-03-23 06:26:00,
2013-03-23 02:32:00,34.0,24.3,29.84,SSE,161,0.0,4.0,67,0.00,,,0.00,0.0,meteohub,2013-03-23 06:32:00,
2013-03-23 02:37:00,34.0,24.8,29.84,SW,221,1.0,4.0,69,0.00,,,0.00,0.0,meteohub,2013-03-23 06:37:00,
2013-03-23 02:42:00,33.8,24.8,29.84,SW,221,0.0,3.0,69,0.00,,,0.00,0.0,meteohub,2013-03-23 06:42:00,
2013-03-23 02:47:00,33.6,24.8,29.84,SW,221,0.0,3.0,70,0.00,,,0.00,0.0,meteohub,2013-03-23 06:47:00,
2013-03-23 02:52:00,33.4,24.8,29.84,SSE,166,1.0,1.0,70,0.00,,,0.00,0.0,meteohub,2013-03-23 06:52:00,
2013-03-23 02:57:00,33.4,25.0,29.83,East,99,1.0,3.0,71,0.00,,,0.00,0.0,meteohub,2013-03-23 06:57:00,
2013-03-23 03:02:00,33.4,24.8,29.83,SSW,196,0.0,3.0,70,0.00,,,0.00,0.0,meteohub,2013-03-23 07:02:00,
2013-03-23 03:08:00,33.6,23.9,29.83,SW,234,2.0,5.0,67,0.00,,,0.00,0.0,meteohub,2013-03-23 07:08:00,
2013-03-23 03:13:00,33.8,24.8,29.83,NNE,28,0.0,5.0,69,0.00,,,0.00,0.0,meteohub,2013-03-23 07:13:00,
2013-03-23 03:18:00,33.8,24.4,29.83,NNE,28,0.0,5.0,68,0.00,,,0.00,0.0,meteohub,2013-03-23 07:18:00,
2013-03-23 03:23:00,33.8,24.1,29.83,NE,39,2.0,4.0,67,0.00,,,0.00,0.0,meteohub,2013-03-23 07:23:00,
2013-03-23 03:28:00,34.0,24.3,29.82,SW,234,0.0,10.0,67,0.00,,,0.00,0.0,meteohub,2013-03-23 07:28:00,
2013-03-23 03:33:00,34.0,24.3,29.83,SSE,163,0.0,10.0,67,0.00,,,0.00,0.0,meteohub,2013-03-23 07:33:00,
2013-03-23 03:38:00,34.2,24.6,29.83,SSW,200,0.0,10.0,68,0.00,,,0.00,0.0,meteohub,2013-03-23 07:38:00,
2013-03-23 03:43:00,34.0,24.3,29.83,WSW,240,2.0,7.0,67,0.00,,,0.00,0.0,meteohub,2013-03-23 07:43:00,
2013-03-23 03:49:00,34.0,24.6,29.83,West,278,2.0,5.0,68,0.00,,,0.00,0.0,meteohub,2013-03-23 07:49:00,
2013-03-23 03:54:00,34.0,24.3,29.83,WSW,238,7.0,7.0,67,0.00,,,0.00,0.0,meteohub,2013-03-23 07:54:00,
2013-03-23 03:59:00,34.2,24.1,29.82,West,266,0.0,7.0,66,0.00,,,0.00,0.0,meteohub,2013-03-23 07:59:00,
2013-03-23 04:04:00,34.2,24.6,29.83,WSW,242,6.0,9.0,68,0.00,,,0.00,0.0,meteohub,2013-03-23 08:04:00,
2013-03-23 04:09:00,34.2,25.0,29.82,WSW,240,0.0,9.0,69,0.00,,,0.00,0.0,meteohub,2013-03-23 08:09:00,
2013-03-23 04:15:00,34.0,24.6,29.82,WSW,247,1.0,6.0,68,0.00,,,0.00,0.0,meteohub,2013-03-23 08:15:00,
2013-03-23 04:20:00,34.0,24.6,29.82,SSW,211,0.0,6.0,68,0.00,,,0.00,0.0,meteohub,2013-03-23 08:20:00,
2013-03-23 04:25:00,34.0,24.6,29.82,SSW,211,0.0,4.0,68,0.00,,,0.00,0.0,meteohub,2013-03-23 08:25:00,
2013-03-23 04:30:00,34.0,24.6,29.82,SSW,211,0.0,3.0,68,0.00,,,0.00,0.0,meteohub,2013-03-23 08:30:00,
2013-03-23 04:35:00,34.0,24.8,29.82,SW,215,0.0,2.0,69,0.00,,,0.00,0.0,meteohub,2013-03-23 08:35:00,
2013-03-23 04:41:00,34.0,24.8,29.82,SW,215,1.0,2.0,69,0.00,,,0.00,0.0,meteohub,2013-03-23 08:41:00,
2013-03-23 04:46:00,33.8,25.7,29.82,SW,215,1.0,2.0,72,0.00,,,0.00,0.0,meteohub,2013-03-23 08:46:00,
2013-03-23 04:51:00,33.6,24.3,29.82,SSW,212,0.0,2.0,68,0.00,,,0.00,0.0,meteohub,2013-03-23 08:51:00,
2013-03-23 04:56:00,33.8,24.8,29.82,NNE,12,1.0,5.0,69,0.00,,,0.00,0.0,meteohub,2013-03-23 08:56:00,
2013-03-23 05:02:00,33.8,25.0,29.82,WSW,252,0.0,5.0,70,0.00,,,0.00,0.0,meteohub,2013-03-23 09:02:00,
2013-03-23 05:07:00,33.6,24.8,29.82,WSW,252,0.0,5.0,70,0.00,,,0.00,0.0,meteohub,2013-03-23 09:07:00,
2013-03-23 05:12:00,33.6,25.5,29.82,WSW,252,1.0,4.0,72,0.00,,,0.00,0.0,meteohub,2013-03-23 09:12:00,
2013-03-23 05:17:00,33.4,25.3,29.82,SSE,165,0.0,2.0,72,0.00,,,0.00,0.0,meteohub,2013-03-23 09:17:00,
2013-03-23 05:23:00,33.3,25.2,29.83,ENE,74,0.0,2.0,72,0.00,,,0.00,0.0,meteohub,2013-03-23 09:23:00,
2013-03-23 05:28:00,33.1,25.7,29.83,SSE,149,0.0,3.0,74,0.00,,,0.00,0.0,meteohub,2013-03-23 09:28:00,
2013-03-23 05:33:00,33.1,25.7,29.83,SSE,149,0.0,3.0,74,0.00,,,0.00,0.0,meteohub,2013-03-23 09:33:00,
2013-03-23 05:38:00,32.9,25.5,29.83,SSE,149,0.0,1.0,74,0.00,,,0.00,0.0,meteohub,2013-03-23 09:38:00,
2013-03-23 05:44:00,32.7,25.0,29.83,SSE,149,0.0,1.0,73,0.00,,,0.00,0.0,meteohub,2013-03-23 09:44:00,
2013-03-23 05:49:00,32.7,25.3,29.83,SE,137,1.0,1.0,74,0.00,,,0.00,0.0,meteohub,2013-03-23 09:49:00,
2013-03-23 05:54:00,32.7,24.6,29.83,NE,46,1.0,0.0,72,0.00,,,0.00,0.0,meteohub,2013-03-23 09:54:00,
2013-03-23 05:59:00,32.9,24.6,29.83,ENE,69,1.0,9.0,71,0.00,,,0.00,0.0,meteohub,2013-03-23 09:59:00,
2013-03-23 06:04:00,33.1,24.4,29.83,ENE,74,0.0,9.0,70,0.00,,,0.00,0.0,meteohub,2013-03-23 10:04:00,
2013-03-23 06:09:00,33.1,24.1,29.83,East,84,0.0,5.0,69,0.00,,,0.00,0.0,meteohub,2013-03-23 10:09:00,
2013-03-23 06:14:00,33.1,24.6,29.83,WSW,245,0.0,5.0,71,0.00,,,0.00,0.0,meteohub,2013-03-23 10:14:00,
2013-03-23 06:19:00,33.1,24.1,29.83,SSW,213,1.0,5.0,69,0.00,,,0.00,0.0,meteohub,2013-03-23 10:19:00,
2013-03-23 06:25:00,33.1,24.4,29.83,WSW,240,0.0,5.0,70,0.00,,,0.00,0.0,meteohub,2013-03-23 10:25:00,
2013-03-23 06:30:00,32.7,24.4,29.83,ESE,117,0.0,4.0,71,0.00,,,0.00,0.0,meteohub,2013-03-23 10:30:00,
2013-03-23 06:35:00,32.5,23.9,29.83,SSW,197,0.0,3.0,70,0.00,,,0.00,0.0,meteohub,2013-03-23 10:35:00,
2013-03-23 06:40:00,32.5,23.9,29.83,SSW,195,0.0,3.0,70,0.00,,,0.00,0.0,meteohub,2013-03-23 10:40:00,
2013-03-23 06:45:00,32.4,24.1,29.83,East,82,0.0,3.0,71,0.00,,,0.00,0.0,meteohub,2013-03-23 10:45:00,
2013-03-23 06:50:00,32.4,24.3,29.83,East,84,0.0,2.0,72,0.00,,,0.00,0.0,meteohub,2013-03-23 10:50:00,
2013-03-23 06:55:00,32.2,24.4,29.84,East,84,0.0,2.0,73,0.00,,,0.00,0.0,meteohub,2013-03-23 10:55:00,
2013-03-23 07:01:00,32.2,24.8,29.84,East,84,0.0,2.0,74,0.00,,,0.00,0.0,meteohub,2013-03-23 11:01:00,
2013-03-23 07:06:00,32.2,24.8,29.84,East,84,0.0,2.0,74,0.00,,,0.00,7.0,meteohub,2013-03-23 11:06:00,
2013-03-23 07:11:00,32.2,24.3,29.83,East,84,0.0,2.0,72,0.00,,,0.00,9.0,meteohub,2013-03-23 11:11:00,
2013-03-23 07:16:00,32.2,24.4,29.83,NE,43,1.0,3.0,73,0.00,,,0.00,12.0,meteohub,2013-03-23 11:16:00,
2013-03-23 07:21:00,32.2,24.8,29.84,SW,236,1.0,3.0,74,0.00,,,0.00,18.0,meteohub,2013-03-23 11:21:00,
2013-03-23 07:27:00,32.2,24.4,29.84,SW,234,1.0,3.0,73,0.00,,,0.00,26.0,meteohub,2013-03-23 11:27:00,
2013-03-23 07:32:00,32.4,24.3,29.83,East,90,0.0,7.0,72,0.00,,,0.00,28.0,meteohub,2013-03-23 11:32:00,
2013-03-23 07:37:00,32.5,24.4,29.83,West,259,1.0,7.0,72,0.00,,,0.00,81.0,meteohub,2013-03-23 11:37:00,
2013-03-23 07:42:00,32.7,24.4,29.83,SSW,210,0.0,7.0,71,0.00,,,0.00,67.0,meteohub,2013-03-23 11:42:00,
2013-03-23 07:47:00,33.3,24.8,29.83,West,261,0.0,5.0,71,0.00,,,0.00,107.0,meteohub,2013-03-23 11:47:00,
2013-03-23 07:52:00,33.4,24.8,29.83,West,261,0.0,5.0,70,0.00,,,0.00,67.0,meteohub,2013-03-23 11:52:00,
2013-03-23 07:57:00,33.8,25.0,29.83,West,261,0.0,5.0,70,0.00,,,0.00,76.0,meteohub,2013-03-23 11:57:00,
2013-03-23 08:02:00,34.0,24.8,29.83,SE,144,0.0,1.0,69,0.00,,,0.00,90.0,meteohub,2013-03-23 12:02:00,
2013-03-23 08:07:00,34.2,25.3,29.83,SSE,156,0.0,3.0,70,0.00,,,0.00,84.0,meteohub,2013-03-23 12:07:00,
2013-03-23 08:13:00,34.3,26.2,29.83,West,263,0.0,5.0,72,0.00,,,0.00,56.0,meteohub,2013-03-23 12:13:00,
2013-03-23 08:18:00,34.3,25.5,29.83,SW,235,0.0,5.0,70,0.00,,,0.00,65.0,meteohub,2013-03-23 12:18:00,
2013-03-23 08:23:00,34.3,25.9,29.83,SW,217,1.0,5.0,71,0.00,,,0.00,111.0,meteohub,2013-03-23 12:23:00,
2013-03-23 08:28:00,34.3,25.9,29.82,SE,144,1.0,5.0,71,0.00,,,0.00,114.0,meteohub,2013-03-23 12:28:00,
2013-03-23 08:34:00,34.9,25.7,29.82,ENE,72,0.0,5.0,69,0.00,,,0.00,171.0,meteohub,2013-03-23 12:34:00,
2013-03-23 08:39:00,35.2,25.7,29.81,NNE,30,0.0,5.0,68,0.00,,,0.00,100.0,meteohub,2013-03-23 12:39:00,
2013-03-23 08:44:00,35.4,25.2,29.81,WSW,245,3.0,8.0,66,0.00,,,0.00,118.0,meteohub,2013-03-23 12:44:00,
2013-03-23 08:49:00,35.6,25.3,29.81,East,80,2.0,8.0,66,0.00,,,0.00,118.0,meteohub,2013-03-23 12:49:00,
2013-03-23 08:54:00,35.8,25.5,29.81,NW,324,0.0,8.0,66,0.00,,,0.00,98.0,meteohub,2013-03-23 12:54:00,
2013-03-23 09:00:00,35.8,24.8,29.82,NNE,20,2.0,7.0,64,0.00,,,0.00,281.0,meteohub,2013-03-23 13:00:00,
2013-03-23 09:05:00,36.0,25.0,29.81,NE,40,1.0,5.0,64,0.00,,,0.00,269.0,meteohub,2013-03-23 13:05:00,
2013-03-23 09:10:00,36.1,25.2,29.82,WSW,242,2.0,5.0,64,0.00,,,0.00,65.0,meteohub,2013-03-23 13:10:00,
2013-03-23 09:16:00,36.1,24.8,29.82,WSW,250,3.0,5.0,63,0.00,,,0.00,90.0,meteohub,2013-03-23 13:16:00,
2013-03-23 09:21:00,36.1,24.4,29.81,South,186,0.0,6.0,62,0.00,,,0.00,62.0,meteohub,2013-03-23 13:21:00,
2013-03-23 09:27:00,36.7,25.0,29.81,ENE,63,3.0,6.0,62,0.00,,,0.00,455.0,meteohub,2013-03-23 13:27:00,
2013-03-23 09:32:00,37.2,25.0,29.82,SSW,205,1.0,10.0,61,0.00,,,0.00,413.0,meteohub,2013-03-23 13:32:00,
2013-03-23 09:37:00,37.6,24.6,29.83,West,281,2.0,10.0,59,0.00,,,0.00,420.0,meteohub,2013-03-23 13:37:00,
2013-03-23 09:42:00,37.2,24.3,29.81,SE,144,2.0,10.0,59,0.00,,,0.00,418.0,meteohub,2013-03-23 13:42:00,
2013-03-23 09:47:00,37.8,24.8,29.81,NW,321,1.0,10.0,59,0.00,,,0.00,343.0,meteohub,2013-03-23 13:47:00,
2013-03-23 09:52:00,37.9,24.4,29.82,North,5,0.0,10.0,58,0.00,,,0.00,464.0,meteohub,2013-03-23 13:52:00,
2013-03-23 09:57:00,38.5,24.6,29.82,WSW,243,0.0,10.0,57,0.00,,,0.00,229.0,meteohub,2013-03-23 13:57:00,
2013-03-23 10:02:00,38.5,23.7,29.82,SSW,205,0.0,7.0,55,0.00,,,0.00,116.0,meteohub,2013-03-23 14:02:00,
2013-03-23 10:07:00,38.8,24.1,29.82,NNE,17,3.0,5.0,55,0.00,,,0.00,236.0,meteohub,2013-03-23 14:07:00,
2013-03-23 10:12:00,38.7,23.9,29.82,SW,217,1.0,13.0,55,0.00,,,0.00,174.0,meteohub,2013-03-23 14:12:00,
2013-03-23 10:17:00,38.5,23.4,29.83,NW,322,0.0,13.0,54,0.00,,,0.00,250.0,meteohub,2013-03-23 14:17:00,
2013-03-23 10:23:00,38.7,23.0,29.83,NNW,327,2.0,6.0,53,0.00,,,0.00,243.0,meteohub,2013-03-23 14:23:00,
2013-03-23 10:28:00,38.7,23.0,29.82,ESE,109,2.0,4.0,53,0.00,,,0.00,214.0,meteohub,2013-03-23 14:28:00,
2013-03-23 10:33:00,39.0,23.7,29.82,West,266,1.0,8.0,54,0.00,,,0.00,223.0,meteohub,2013-03-23 14:33:00,
2013-03-23 10:38:00,39.0,23.7,29.83,NW,320,4.0,8.0,54,0.00,,,0.00,144.0,meteohub,2013-03-23 14:38:00,
2013-03-23 10:43:00,38.7,23.4,29.83,West,267,0.0,11.0,54,0.00,,,0.00,202.0,meteohub,2013-03-23 14:43:00,
2013-03-23 10:49:00,38.5,22.5,29.83,NNE,16,0.0,11.0,52,0.00,,,0.00,248.0,meteohub,2013-03-23 14:49:00,
2013-03-23 10:54:00,38.5,23.4,29.83,NW,309,1.0,11.0,54,0.00,,,0.00,123.0,meteohub,2013-03-23 14:54:00,
2013-03-23 10:59:00,38.3,22.3,29.83,NNW,333,0.0,6.0,52,0.00,,,0.00,680.0,meteohub,2013-03-23 14:59:00,
2013-03-23 11:04:00,38.8,21.7,29.83,NE,52,7.0,8.0,50,0.00,,,0.00,710.0,meteohub,2013-03-23 15:04:00,
2013-03-23 11:09:00,39.2,22.1,29.83,NW,317,4.0,8.0,50,0.00,,,0.00,719.0,meteohub,2013-03-23 15:09:00,
2013-03-23 11:14:00,39.4,21.7,29.83,SE,126,0.0,8.0,49,0.00,,,0.00,76.0,meteohub,2013-03-23 15:14:00,
2013-03-23 11:19:00,39.6,21.0,29.83,SSW,196,2.0,7.0,47,0.00,,,0.00,185.0,meteohub,2013-03-23 15:19:00,
2013-03-23 11:25:00,39.2,21.2,29.83,WSW,252,2.0,7.0,48,0.00,,,0.00,821.0,meteohub,2013-03-23 15:25:00,
2013-03-23 11:30:00,39.2,20.7,29.83,NW,304,2.0,7.0,47,0.00,,,0.00,116.0,meteohub,2013-03-23 15:30:00,
2013-03-23 11:35:00,39.0,21.0,29.83,NW,315,2.0,7.0,48,0.00,,,0.00,775.0,meteohub,2013-03-23 15:35:00,
2013-03-23 11:40:00,39.4,21.4,29.85,ESE,117,3.0,7.0,48,0.00,,,0.00,798.0,meteohub,2013-03-23 15:40:00,
2013-03-23 11:45:00,39.9,21.4,29.84,WNW,294,4.0,8.0,47,0.00,,,0.00,854.0,meteohub,2013-03-23 15:45:00,
2013-03-23 11:50:00,40.3,20.1,29.83,WSW,248,3.0,7.0,44,0.00,,,0.00,167.0,meteohub,2013-03-23 15:50:00,
2013-03-23 11:55:00,40.1,20.5,29.83,NE,37,6.0,8.0,45,0.00,,,0.00,842.0,meteohub,2013-03-23 15:55:00,
2013-03-23 12:01:00,40.5,20.3,29.83,WSW,240,3.0,8.0,44,0.00,,,0.00,898.0,meteohub,2013-03-23 16:01:00,
2013-03-23 12:06:00,39.9,20.3,29.84,WSW,250,2.0,7.0,45,0.00,,,0.00,884.0,meteohub,2013-03-23 16:06:00,
2013-03-23 12:11:00,39.7,21.2,29.84,NNE,26,1.0,9.0,47,0.00,,,0.00,160.0,meteohub,2013-03-23 16:11:00,
2013-03-23 12:17:00,39.9,20.3,29.84,ENE,61,3.0,9.0,45,0.00,,,0.00,921.0,meteohub,2013-03-23 16:17:00,
2013-03-23 12:22:00,39.9,20.3,29.85,NNW,332,2.0,9.0,45,0.00,,,0.00,141.0,meteohub,2013-03-23 16:22:00,
2013-03-23 12:27:00,39.7,19.0,29.84,NNW,333,3.0,13.0,43,0.00,,,0.00,928.0,meteohub,2013-03-23 16:27:00,
2013-03-23 12:32:00,40.1,21.0,29.84,WNW,287,0.0,13.0,46,0.00,,,0.00,378.0,meteohub,2013-03-23 16:32:00,
2013-03-23 12:37:00,40.3,20.7,29.85,SW,230,3.0,13.0,45,0.00,,,0.00,993.0,meteohub,2013-03-23 16:37:00,
2013-03-23 12:42:00,40.5,20.8,29.84,NNE,25,3.0,6.0,45,0.00,,,0.00,993.0,meteohub,2013-03-23 16:42:00,
2013-03-23 12:47:00,40.3,20.1,29.84,NNE,20,3.0,7.0,44,0.00,,,0.00,195.0,meteohub,2013-03-23 16:47:00,
2013-03-23 12:52:00,40.3,20.7,29.85,SW,223,2.0,7.0,45,0.00,,,0.00,174.0,meteohub,2013-03-23 16:52:00,
2013-03-23 12:58:00,40.5,19.8,29.85,ENE,58,1.0,7.0,43,0.00,,,0.00,255.0,meteohub,2013-03-23 16:58:00,
2013-03-23 13:03:00,40.6,19.9,29.85,East,80,1.0,8.0,43,0.00,,,0.00,812.0,meteohub,2013-03-23 17:03:00,
2013-03-23 13:08:00,41.2,19.8,29.85,North,351,1.0,12.0,42,0.00,,,0.00,854.0,meteohub,2013-03-23 17:08:00,
2013-03-23 13:13:00,41.7,21.9,29.85,NE,37,2.0,12.0,45,0.00,,,0.00,905.0,meteohub,2013-03-23 17:13:00,
2013-03-23 13:18:00,42.1,21.7,29.85,NNE,26,2.0,12.0,44,0.00,,,0.00,923.0,meteohub,2013-03-23 17:18:00,
2013-03-23 13:23:00,41.7,20.3,29.85,NNW,336,2.0,8.0,42,0.00,,,0.00,877.0,meteohub,2013-03-23 17:23:00,
2013-03-23 13:28:00,41.7,20.3,29.85,West,260,2.0,14.0,42,0.00,,,0.00,877.0,meteohub,2013-03-23 17:28:00,
2013-03-23 13:33:00,41.7,20.3,29.84,East,93,6.0,17.0,42,0.00,,,0.00,902.0,meteohub,2013-03-23 17:33:00,
2013-03-23 13:39:00,41.9,21.0,29.84,NE,46,1.0,17.0,43,0.00,,,0.00,933.0,meteohub,2013-03-23 17:39:00,
2013-03-23 13:44:00,42.1,21.2,29.84,WSW,242,11.0,11.0,43,0.00,,,0.00,865.0,meteohub,2013-03-23 17:44:00,
2013-03-23 13:49:00,41.7,20.3,29.84,SE,130,0.0,9.0,42,0.00,,,0.00,826.0,meteohub,2013-03-23 17:49:00,
2013-03-23 13:54:00,41.9,22.1,29.84,SSE,162,3.0,15.0,45,0.00,,,0.00,800.0,meteohub,2013-03-23 17:54:00,
2013-03-23 13:59:00,42.1,20.7,29.84,SSW,211,6.0,15.0,42,0.00,,,0.00,789.0,meteohub,2013-03-23 17:59:00,
2013-03-23 14:05:00,41.4,21.0,29.84,South,182,5.0,9.0,44,0.00,,,0.00,784.0,meteohub,2013-03-23 18:05:00,
2013-03-23 14:10:00,41.2,19.8,29.83,South,174,0.0,12.0,42,0.00,,,0.00,772.0,meteohub,2013-03-23 18:10:00,
2013-03-23 14:15:00,41.4,19.9,29.83,North,5,3.0,13.0,42,0.00,,,0.00,847.0,meteohub,2013-03-23 18:15:00,
2013-03-23 14:21:00,41.5,20.1,29.83,NW,318,1.0,13.0,42,0.00,,,0.00,875.0,meteohub,2013-03-23 18:21:00,
2013-03-23 14:26:00,41.7,20.8,29.84,WSW,244,10.0,15.0,43,0.00,,,0.00,788.0,meteohub,2013-03-23 18:26:00,
2013-03-23 14:31:00,42.1,20.7,29.83,South,180,2.0,15.0,42,0.00,,,0.00,717.0,meteohub,2013-03-23 18:31:00,
2013-03-23 14:36:00,42.3,21.4,29.84,South,173,5.0,15.0,43,0.00,,,0.00,738.0,meteohub,2013-03-23 18:36:00,
2013-03-23 14:41:00,42.1,19.6,29.82,NW,311,5.0,10.0,40,0.00,,,0.00,740.0,meteohub,2013-03-23 18:41:00,
2013-03-23 14:47:00,42.3,20.3,29.83,SW,223,14.0,14.0,41,0.00,,,0.00,728.0,meteohub,2013-03-23 18:47:00,
2013-03-23 14:52:00,42.4,20.5,29.83,WSW,257,5.0,15.0,41,0.00,,,0.00,728.0,meteohub,2013-03-23 18:52:00,
2013-03-23 14:57:00,42.8,21.4,29.82,West,265,1.0,15.0,42,0.00,,,0.00,719.0,meteohub,2013-03-23 18:57:00,
2013-03-23 15:02:00,42.8,20.7,29.83,West,280,9.0,15.0,41,0.00,,,0.00,684.0,meteohub,2013-03-23 19:02:00,
2013-03-23 15:07:00,42.3,21.4,29.82,NW,305,1.0,12.0,43,0.00,,,0.00,684.0,meteohub,2013-03-23 19:07:00,
2013-03-23 15:12:00,41.9,19.4,29.82,NE,56,2.0,14.0,40,0.00,,,0.00,650.0,meteohub,2013-03-23 19:12:00,
2013-03-23 15:17:00,42.1,21.2,29.81,SSE,158,0.0,17.0,43,0.00,,,0.00,636.0,meteohub,2013-03-23 19:17:00,
2013-03-23 15:22:00,42.8,21.4,29.82,ENE,71,2.0,17.0,42,0.00,,,0.00,635.0,meteohub,2013-03-23 19:22:00,
2013-03-23 15:27:00,43.0,20.8,29.82,WSW,240,5.0,9.0,41,0.00,,,0.00,649.0,meteohub,2013-03-23 19:27:00,
2013-03-23 15:32:00,42.8,20.7,29.82,SW,219,3.0,9.0,41,0.00,,,0.00,621.0,meteohub,2013-03-23 19:32:00,
2013-03-23 15:37:00,42.4,21.0,29.81,WSW,254,6.0,9.0,42,0.00,,,0.00,615.0,meteohub,2013-03-23 19:37:00,
2013-03-23 15:43:00,42.4,21.0,29.81,NNE,25,1.0,18.0,42,0.00,,,0.00,570.0,meteohub,2013-03-23 19:43:00,
2013-03-23 15:48:00,42.6,21.2,29.82,East,92,1.0,18.0,42,0.00,,,0.00,568.0,meteohub,2013-03-23 19:48:00,
2013-03-23 15:53:00,43.0,20.8,29.82,SSE,154,2.0,18.0,41,0.00,,,0.00,582.0,meteohub,2013-03-23 19:53:00,
2013-03-23 15:58:00,43.0,20.3,29.82,West,259,3.0,8.0,40,0.00,,,0.00,492.0,meteohub,2013-03-23 19:58:00,
2013-03-23 16:03:00,42.6,19.9,29.82,SW,215,0.0,12.0,40,0.00,,,0.00,209.0,meteohub,2013-03-23 20:03:00,
2013-03-23 16:08:00,42.6,20.5,29.82,NE,49,0.0,12.0,41,0.00,,,0.00,83.0,meteohub,2013-03-23 20:08:00,
2013-03-23 16:14:00,42.4,19.8,29.82,SSE,163,0.0,12.0,40,0.00,,,0.00,107.0,meteohub,2013-03-23 20:14:00,
2013-03-23 16:19:00,42.4,22.6,29.83,WNW,286,1.0,9.0,45,0.00,,,0.00,76.0,meteohub,2013-03-23 20:19:00,
2013-03-23 16:24:00,42.4,20.5,29.82,WSW,250,2.0,9.0,41,0.00,,,0.00,130.0,meteohub,2013-03-23 20:24:00,
2013-03-23 16:29:00,41.9,19.4,29.83,East,91,2.0,9.0,40,0.00,,,0.00,72.0,meteohub,2013-03-23 20:29:00,
2013-03-23 16:35:00,41.7,19.8,29.83,NNE,22,7.0,12.0,41,0.00,,,0.00,83.0,meteohub,2013-03-23 20:35:00,
2013-03-23 16:40:00,41.5,22.8,29.83,West,269,1.0,12.0,47,0.00,,,0.00,58.0,meteohub,2013-03-23 20:40:00,
2013-03-23 16:45:00,41.4,20.5,29.83,North,5,2.0,12.0,43,0.00,,,0.00,49.0,meteohub,2013-03-23 20:45:00,
2013-03-23 16:50:00,41.4,20.5,29.82,NW,322,6.0,11.0,43,0.00,,,0.00,69.0,meteohub,2013-03-23 20:50:00,
2013-03-23 16:55:00,41.0,20.3,29.83,WSW,244,2.0,12.0,43,0.00,,,0.00,84.0,meteohub,2013-03-23 20:55:00,
2013-03-23 17:01:00,41.2,19.8,29.83,SSE,155,2.0,12.0,42,0.00,,,0.00,86.0,meteohub,2013-03-23 21:01:00,
2013-03-23 17:06:00,41.5,20.7,29.83,SW,216,0.0,8.0,43,0.00,,,0.00,114.0,meteohub,2013-03-23 21:06:00,
2013-03-23 17:12:00,41.7,20.3,29.83,East,90,5.0,5.0,42,0.00,,,0.00,264.0,meteohub,2013-03-23 21:12:00,
2013-03-23 17:17:00,41.9,19.9,29.83,WNW,282,1.0,10.0,41,0.00,,,0.00,272.0,meteohub,2013-03-23 21:17:00,
2013-03-23 17:22:00,42.1,19.6,29.83,East,90,0.0,10.0,40,0.00,,,0.00,234.0,meteohub,2013-03-23 21:22:00,
2013-03-23 17:27:00,42.3,19.6,29.83,NW,309,3.0,10.0,40,0.00,,,0.00,206.0,meteohub,2013-03-23 21:27:00,
2013-03-23 17:32:00,42.1,20.1,29.83,SE,126,1.0,9.0,41,0.00,,,0.00,204.0,meteohub,2013-03-23 21:32:00,
2013-03-23 17:38:00,42.1,19.6,29.83,NE,39,0.0,9.0,40,0.00,,,0.00,193.0,meteohub,2013-03-23 21:38:00,
2013-03-23 17:43:00,41.7,19.8,29.84,West,281,0.0,9.0,41,0.00,,,0.00,202.0,meteohub,2013-03-23 21:43:00,
2013-03-23 17:48:00,41.5,20.7,29.84,ESE,104,2.0,7.0,43,0.00,,,0.00,102.0,meteohub,2013-03-23 21:48:00,
2013-03-23 17:53:00,41.2,20.8,29.84,SSW,198,0.0,7.0,44,0.00,,,0.00,105.0,meteohub,2013-03-23 21:53:00,
2013-03-23 17:58:00,41.2,19.8,29.84,SW,221,0.0,5.0,42,0.00,,,0.00,130.0,meteohub,2013-03-23 21:58:00,
2013-03-23 18:03:00,41.2,19.8,29.84,SSE,166,0.0,7.0,42,0.00,,,0.00,141.0,meteohub,2013-03-23 22:03:00,
2013-03-23 18:08:00,41.4,19.4,29.85,SSW,194,0.0,7.0,41,0.00,,,0.00,125.0,meteohub,2013-03-23 22:08:00,
2013-03-23 18:14:00,41.5,21.7,29.85,WSW,257,1.0,7.0,45,0.00,,,0.00,105.0,meteohub,2013-03-23 22:14:00,
2013-03-23 18:19:00,41.4,19.9,29.85,East,90,1.0,5.0,42,0.00,,,0.00,33.0,meteohub,2013-03-23 22:19:00,
2013-03-23 18:24:00,40.5,20.8,29.85,SSE,161,0.0,4.0,45,0.00,,,0.00,23.0,meteohub,2013-03-23 22:24:00,
2013-03-23 18:29:00,39.7,18.5,29.85,NE,39,2.0,17.0,42,0.00,,,0.00,14.0,meteohub,2013-03-23 22:29:00,
2013-03-23 18:34:00,39.4,19.8,29.85,West,269,1.0,17.0,45,0.00,,,0.00,12.0,meteohub,2013-03-23 22:34:00,
2013-03-23 18:40:00,38.8,18.3,29.86,NNE,24,2.0,17.0,43,0.00,,,0.00,12.0,meteohub,2013-03-23 22:40:00,
2013-03-23 18:45:00,38.7,19.2,29.86,NW,326,0.0,9.0,45,0.00,,,0.00,11.0,meteohub,2013-03-23 22:45:00,
2013-03-23 18:50:00,38.3,20.3,29.86,SE,127,1.0,9.0,48,0.00,,,0.00,16.0,meteohub,2013-03-23 22:50:00,
2013-03-23 18:55:00,38.1,18.7,29.86,NNE,26,1.0,5.0,45,0.00,,,0.00,12.0,meteohub,2013-03-23 22:55:00,
2013-03-23 19:01:00,37.9,20.5,29.86,NNW,340,1.0,8.0,49,0.00,,,0.00,11.0,meteohub,2013-03-23 23:01:00,
2013-03-23 19:06:00,37.8,19.4,29.86,East,86,0.0,8.0,47,0.00,,,0.00,5.0,meteohub,2013-03-23 23:06:00,
2013-03-23 19:12:00,37.6,19.2,29.86,NE,38,1.0,8.0,47,0.00,,,0.00,0.0,meteohub,2013-03-23 23:12:00,
2013-03-23 19:17:00,37.6,19.2,29.87,ENE,67,0.0,8.0,47,0.00,,,0.00,0.0,meteohub,2013-03-23 23:17:00,
2013-03-23 19:22:00,37.4,19.0,29.87,WSW,242,2.0,7.0,47,0.00,,,0.00,0.0,meteohub,2013-03-23 23:22:00,
2013-03-23 19:27:00,37.2,18.3,29.88,North,5,2.0,10.0,46,0.00,,,0.00,0.0,meteohub,2013-03-23 23:27:00,
2013-03-23 19:32:00,37.2,18.3,29.88,NNE,24,3.0,10.0,46,0.00,,,0.00,0.0,meteohub,2013-03-23 23:32:00,
2013-03-23 19:37:00,37.0,19.2,29.88,NW,307,3.0,10.0,48,0.00,,,0.00,0.0,meteohub,2013-03-23 23:37:00,
2013-03-23 19:42:00,37.0,19.2,29.88,East,94,5.0,8.0,48,0.00,,,0.00,0.0,meteohub,2013-03-23 23:42:00,
2013-03-23 19:47:00,37.0,19.6,29.88,West,271,1.0,8.0,49,0.00,,,0.00,0.0,meteohub,2013-03-23 23:47:00,
2013-03-23 19:52:00,37.0,21.0,29.89,NE,44,0.0,8.0,52,0.00,,,0.00,0.0,meteohub,2013-03-23 23:52:00,
2013-03-23 19:57:00,36.9,20.5,29.88,WSW,249,2.0,5.0,51,0.00,,,0.00,0.0,meteohub,2013-03-23 23:57:00,
2013-03-23 20:02:00,36.7,21.2,29.89,South,175,0.0,3.0,53,0.00,,,0.00,0.0,meteohub,2013-03-24 00:02:00,
2013-03-23 20:07:00,36.3,20.3,29.88,NE,55,2.0,5.0,52,0.00,,,0.00,0.0,meteohub,2013-03-24 00:07:00,
2013-03-23 20:12:00,36.3,19.4,29.89,SW,230,2.0,6.0,50,0.00,,,0.00,0.0,meteohub,2013-03-24 00:12:00,
2013-03-23 20:18:00,36.3,19.4,29.89,West,281,1.0,8.0,50,0.00,,,0.00,0.0,meteohub,2013-03-24 00:18:00,
2013-03-23 20:23:00,36.3,19.4,29.89,NE,36,3.0,8.0,50,0.00,,,0.00,0.0,meteohub,2013-03-24 00:23:00,
2013-03-23 20:28:00,36.3,19.9,29.89,NE,38,1.0,8.0,51,0.00,,,0.00,0.0,meteohub,2013-03-24 00:28:00,
2013-03-23 20:33:00,36.1,20.7,29.90,North,5,1.0,5.0,53,0.00,,,0.00,0.0,meteohub,2013-03-24 00:33:00,
2013-03-23 20:39:00,36.1,21.0,29.90,NNW,340,2.0,5.0,54,0.00,,,0.00,0.0,meteohub,2013-03-24 00:39:00,
2013-03-23 20:44:00,36.0,21.4,29.90,East,97,1.0,4.0,55,0.00,,,0.00,0.0,meteohub,2013-03-24 00:44:00,
2013-03-23 20:49:00,36.0,20.1,29.91,NNE,15,0.0,9.0,52,0.00,,,0.00,0.0,meteohub,2013-03-24 00:49:00,
2013-03-23 20:54:00,36.0,21.0,29.92,NE,55,1.0,9.0,54,0.00,,,0.00,0.0,meteohub,2013-03-24 00:54:00,
2013-03-23 20:59:00,35.8,20.3,29.91,NE,36,1.0,9.0,53,0.00,,,0.00,0.0,meteohub,2013-03-24 00:59:00,
2013-03-23 21:05:00,35.6,21.0,29.91,NNE,26,1.0,9.0,55,0.00,,,0.00,0.0,meteohub,2013-03-24 01:05:00,
2013-03-23 21:10:00,35.6,20.7,29.91,ENE,71,2.0,9.0,54,0.00,,,0.00,0.0,meteohub,2013-03-24 01:10:00,
2013-03-23 21:15:00,35.4,23.0,29.91,ENE,69,0.0,5.0,60,0.00,,,0.00,0.0,meteohub,2013-03-24 01:15:00,
2013-03-23 21:20:00,35.1,22.1,29.92,ENE,69,2.0,5.0,59,0.00,,,0.00,0.0,meteohub,2013-03-24 01:20:00,
2013-03-23 21:25:00,34.9,19.9,29.92,ENE,71,0.0,5.0,54,0.00,,,0.00,0.0,meteohub,2013-03-24 01:25:00,
2013-03-23 21:31:00,34.9,20.3,29.91,NE,50,0.0,5.0,55,0.00,,,0.00,0.0,meteohub,2013-03-24 01:31:00,
2013-03-23 21:36:00,34.7,19.4,29.92,East,80,2.0,7.0,53,0.00,,,0.00,0.0,meteohub,2013-03-24 01:36:00,
2013-03-23 21:41:00,34.5,18.7,29.91,East,85,1.0,7.0,52,0.00,,,0.00,0.0,meteohub,2013-03-24 01:41:00,
2013-03-23 21:46:00,34.5,19.6,29.92,East,88,1.0,6.0,54,0.00,,,0.00,0.0,meteohub,2013-03-24 01:46:00,
2013-03-23 21:51:00,34.3,20.3,29.91,ENE,72,0.0,6.0,56,0.00,,,0.00,0.0,meteohub,2013-03-24 01:51:00,
2013-03-23 21:56:00,34.3,19.4,29.92,SSW,205,0.0,6.0,54,0.00,,,0.00,0.0,meteohub,2013-03-24 01:56:00,
2013-03-23 22:01:00,34.5,18.7,29.92,North,355,2.0,7.0,52,0.00,,,0.00,0.0,meteohub,2013-03-24 02:01:00,
2013-03-23 22:07:00,34.9,19.4,29.91,ESE,102,0.0,10.0,53,0.00,,,0.00,0.0,meteohub,2013-03-24 02:07:00,
2013-03-23 22:12:00,34.7,20.1,29.92,ESE,102,0.0,10.0,55,0.00,,,0.00,0.0,meteohub,2013-03-24 02:12:00,
2013-03-23 22:17:00,34.5,19.6,29.92,ESE,102,0.0,8.0,54,0.00,,,0.00,0.0,meteohub,2013-03-24 02:17:00,
2013-03-23 22:22:00,34.3,19.4,29.91,NE,36,2.0,2.0,54,0.00,,,0.00,0.0,meteohub,2013-03-24 02:22:00,
2013-03-23 22:27:00,34.3,19.8,29.91,NNE,30,1.0,7.0,55,0.00,,,0.00,0.0,meteohub,2013-03-24 02:27:00,
2013-03-23 22:32:00,34.0,20.3,29.91,NNE,17,0.0,7.0,57,0.00,,,0.00,0.0,meteohub,2013-03-24 02:32:00,
2013-03-23 22:37:00,33.6,19.9,29.91,East,94,0.0,7.0,57,0.00,,,0.00,0.0,meteohub,2013-03-24 02:37:00,
2013-03-23 22:42:00,33.4,20.3,29.91,North,0,0.0,5.0,58,0.00,,,0.00,0.0,meteohub,2013-03-24 02:42:00,
2013-03-23 22:47:00,33.4,21.0,29.91,NW,310,0.0,7.0,60,0.00,,,0.00,0.0,meteohub,2013-03-24 02:47:00,
2013-03-23 22:52:00,33.4,21.7,29.91,NNE,32,0.0,7.0,62,0.00,,,0.00,0.0,meteohub,2013-03-24 02:52:00,
2013-03-23 22:57:00,33.3,20.1,29.91,ESE,121,0.0,7.0,58,0.00,,,0.00,0.0,meteohub,2013-03-24 02:57:00,
2013-03-23 23:02:00,33.3,20.5,29.91,SE,144,0.0,2.0,59,0.00,,,0.00,0.0,meteohub,2013-03-24 03:02:00,
2013-03-23 23:07:00,33.4,20.3,29.91,NW,325,2.0,2.0,58,0.00,,,0.00,0.0,meteohub,2013-03-24 03:07:00,
2013-03-23 23:12:00,33.6,20.8,29.91,ENE,64,0.0,10.0,59,0.00,,,0.00,0.0,meteohub,2013-03-24 03:12:00,
2013-03-23 23:17:00,33.4,21.0,29.91,SE,140,2.0,10.0,60,0.00,,,0.00,0.0,meteohub,2013-03-24 03:17:00,
2013-03-23 23:23:00,33.4,20.7,29.91,West,259,0.0,8.0,59,0.00,,,0.00,0.0,meteohub,2013-03-24 03:23:00,
2013-03-23 23:28:00,33.6,21.2,29.91,NNE,28,0.0,3.0,60,0.00,,,0.00,0.0,meteohub,2013-03-24 03:28:00,
2013-03-23 23:33:00,33.4,21.0,29.91,WSW,257,1.0,3.0,60,0.00,,,0.00,0.0,meteohub,2013-03-24 03:33:00,
2013-03-23 23:38:00,33.3,22.5,29.91,SSW,211,0.0,3.0,64,0.00,,,0.00,0.0,meteohub,2013-03-24 03:38:00,
2013-03-23 23:43:00,33.1,21.9,29.91,SE,129,0.0,3.0,63,0.00,,,0.00,0.0,meteohub,2013-03-24 03:43:00,
2013-03-23 23:48:00,32.7,21.6,29.91,NNW,339,1.0,3.0,63,0.00,,,0.00,0.0,meteohub,2013-03-24 03:48:00,
2013-03-23 23:54:00,33.1,21.9,29.91,WSW,252,0.0,5.0,63,0.00,,,0.00,0.0,meteohub,2013-03-24 03:54:00,
2013-03-23 23:59:00,33.1,22.6,29.91,WNW,285,2.0,5.0,65,0.00,,,0.00,0.0,meteohub,2013-03-24 03:59:00,